sensor_id;sensor_type;location;lat;lon;timestamp;pressure;altitude;pressure_sealevel;temperature
28803;BMP280;15949;55.656;37.422;2022-09-03T00:00:09;99917.53;;;5.77
28803;BMP280;15949;55.656;37.422;2022-09-03T00:05:25;99931.50;;;5.74
28803;BMP280;15949;55.656;37.422;2022-09-03T00:15:42;99944.34;;;5.83
28803;BMP280;15949;55.656;37.422;2022-09-03T00:20:50;99949.66;;;5.86
28803;BMP280;15949;55.656;37.422;2022-09-03T00:31:40;99960.94;;;5.72
28803;BMP280;15949;55.656;37.422;2022-09-03T00:36:47;99969.25;;;5.64
28803;BMP280;15949;55.656;37.422;2022-09-03T00:47:45;99973.75;;;5.52
28803;BMP280;15949;55.656;37.422;2022-09-03T01:15:18;99975.66;;;5.55
28803;BMP280;15949;55.656;37.422;2022-09-03T01:20:34;99982.47;;;5.49
28803;BMP280;15949;55.656;37.422;2022-09-03T01:26:02;99985.03;;;5.35
28803;BMP280;15949;55.656;37.422;2022-09-03T01:31:34;99986.16;;;5.34
28803;BMP280;15949;55.656;37.422;2022-09-03T01:42:24;100002.00;;;5.27
28803;BMP280;15949;55.656;37.422;2022-09-03T01:47:55;100006.88;;;5.21
28803;BMP280;15949;55.656;37.422;2022-09-03T01:58:29;100017.47;;;5.25
28803;BMP280;15949;55.656;37.422;2022-09-03T02:03:38;100019.75;;;5.26
28803;BMP280;15949;55.656;37.422;2022-09-03T02:08:45;100024.63;;;5.31
28803;BMP280;15949;55.656;37.422;2022-09-03T02:13:53;100036.34;;;5.27
28803;BMP280;15949;55.656;37.422;2022-09-03T02:19:09;100039.72;;;5.24
28803;BMP280;15949;55.656;37.422;2022-09-03T02:24:16;100039.34;;;5.25
28803;BMP280;15949;55.656;37.422;2022-09-03T02:29:23;100040.81;;;5.16
28803;BMP280;15949;55.656;37.422;2022-09-03T02:34:29;100036.59;;;5.07
28803;BMP280;15949;55.656;37.422;2022-09-03T02:39:35;100046.00;;;5.01
28803;BMP280;15949;55.656;37.422;2022-09-03T02:44:48;100054.66;;;4.95
28803;BMP280;15949;55.656;37.422;2022-09-03T02:49:55;100051.28;;;5.01
28803;BMP280;15949;55.656;37.422;2022-09-03T02:55:01;100048.28;;;5.03
28803;BMP280;15949;55.656;37.422;2022-09-03T03:00:07;100057.38;;;5.05
28803;BMP280;15949;55.656;37.422;2022-09-03T03:05:19;100061.84;;;5.01
28803;BMP280;15949;55.656;37.422;2022-09-03T03:10:28;100057.31;;;4.98
28803;BMP280;15949;55.656;37.422;2022-09-03T03:15:33;100065.66;;;5.07
28803;BMP280;15949;55.656;37.422;2022-09-03T03:20:40;100061.91;;;5.12
28803;BMP280;15949;55.656;37.422;2022-09-03T03:25:46;100069.84;;;5.12
28803;BMP280;15949;55.656;37.422;2022-09-03T03:30:52;100080.03;;;5.13
28803;BMP280;15949;55.656;37.422;2022-09-03T03:35:57;100080.84;;;5.18
28803;BMP280;15949;55.656;37.422;2022-09-03T03:41:17;100084.59;;;5.20
28803;BMP280;15949;55.656;37.422;2022-09-03T03:46:24;100092.16;;;5.25
28803;BMP280;15949;55.656;37.422;2022-09-03T03:51:29;100084.63;;;5.27
28803;BMP280;15949;55.656;37.422;2022-09-03T03:56:35;100086.53;;;5.27
28803;BMP280;15949;55.656;37.422;2022-09-03T04:01:41;100092.97;;;5.33
28803;BMP280;15949;55.656;37.422;2022-09-03T04:06:46;100088.44;;;5.33
28803;BMP280;15949;55.656;37.422;2022-09-03T04:11:52;100105.09;;;5.41
28803;BMP280;15949;55.656;37.422;2022-09-03T04:16:58;100105.88;;;5.45
28803;BMP280;15949;55.656;37.422;2022-09-03T04:22:03;100100.59;;;5.45
28803;BMP280;15949;55.656;37.422;2022-09-03T04:27:09;100117.97;;;5.53
28803;BMP280;15949;55.656;37.422;2022-09-03T04:32:14;100115.00;;;5.59
28803;BMP280;15949;55.656;37.422;2022-09-03T04:37:39;100119.94;;;5.74
28803;BMP280;15949;55.656;37.422;2022-09-03T04:42:44;100126.41;;;5.84
28803;BMP280;15949;55.656;37.422;2022-09-03T04:48:00;100120.75;;;5.89
28803;BMP280;15949;55.656;37.422;2022-09-03T04:53:06;100122.31;;;6.08
28803;BMP280;15949;55.656;37.422;2022-09-03T04:58:12;100131.00;;;6.19
28803;BMP280;15949;55.656;37.422;2022-09-03T05:03:17;100123.09;;;6.37
28803;BMP280;15949;55.656;37.422;2022-09-03T05:08:23;100129.16;;;6.52
28803;BMP280;15949;55.656;37.422;2022-09-03T05:13:31;100128.03;;;6.71
28803;BMP280;15949;55.656;37.422;2022-09-03T05:18:38;100138.59;;;6.89
28803;BMP280;15949;55.656;37.422;2022-09-03T05:23:47;100139.28;;;7.11
28803;BMP280;15949;55.656;37.422;2022-09-03T05:29:00;100140.03;;;7.26
28803;BMP280;15949;55.656;37.422;2022-09-03T05:34:06;100152.13;;;7.37
28803;BMP280;15949;55.656;37.422;2022-09-03T05:39:12;100146.75;;;7.52
28803;BMP280;15949;55.656;37.422;2022-09-03T05:44:18;100149.69;;;7.75
28803;BMP280;15949;55.656;37.422;2022-09-03T05:49:27;100151.97;;;7.77
28803;BMP280;15949;55.656;37.422;2022-09-03T05:54:34;100162.03;;;8.07
28803;BMP280;15949;55.656;37.422;2022-09-03T05:59:40;100159.22;;;8.28
28803;BMP280;15949;55.656;37.422;2022-09-03T06:04:45;100165.56;;;8.42
28803;BMP280;15949;55.656;37.422;2022-09-03T06:09:51;100169.19;;;8.62
28803;BMP280;15949;55.656;37.422;2022-09-03T06:14:57;100170.94;;;8.80
28803;BMP280;15949;55.656;37.422;2022-09-03T06:20:02;100174.56;;;8.96
28803;BMP280;15949;55.656;37.422;2022-09-03T06:25:08;100175.91;;;9.15
28803;BMP280;15949;55.656;37.422;2022-09-03T06:30:15;100169.91;;;9.42
28803;BMP280;15949;55.656;37.422;2022-09-03T06:35:21;100179.81;;;9.68
28803;BMP280;15949;55.656;37.422;2022-09-03T06:40:27;100177.63;;;10.18
28803;BMP280;15949;55.656;37.422;2022-09-03T06:45:33;100182.22;;;10.64
28803;BMP280;15949;55.656;37.422;2022-09-03T06:50:38;100187.78;;;10.93
28803;BMP280;15949;55.656;37.422;2022-09-03T06:56:01;100185.81;;;10.77
28803;BMP280;15949;55.656;37.422;2022-09-03T07:01:10;100188.63;;;10.67
28803;BMP280;15949;55.656;37.422;2022-09-03T07:06:17;100189.53;;;10.80
28803;BMP280;15949;55.656;37.422;2022-09-03T07:11:25;100187.53;;;11.07
28803;BMP280;15949;55.656;37.422;2022-09-03T07:16:34;100197.34;;;11.11
28803;BMP280;15949;55.656;37.422;2022-09-03T07:21:40;100195.56;;;11.24
28803;BMP280;15949;55.656;37.422;2022-09-03T07:26:46;100190.56;;;11.46
28803;BMP280;15949;55.656;37.422;2022-09-03T07:31:53;100203.88;;;11.66
28803;BMP280;15949;55.656;37.422;2022-09-03T07:36:59;100205.22;;;11.74
28803;BMP280;15949;55.656;37.422;2022-09-03T07:42:05;100191.28;;;11.83
28803;BMP280;15949;55.656;37.422;2022-09-03T07:47:13;100202.28;;;12.05
28803;BMP280;15949;55.656;37.422;2022-09-03T07:52:19;100190.22;;;12.29
28803;BMP280;15949;55.656;37.422;2022-09-03T07:57:24;100190.50;;;12.47
28803;BMP280;15949;55.656;37.422;2022-09-03T08:02:30;100190.81;;;12.95
28803;BMP280;15949;55.656;37.422;2022-09-03T08:07:36;100182.28;;;13.13
28803;BMP280;15949;55.656;37.422;2022-09-03T08:12:42;100189.59;;;12.83
28803;BMP280;15949;55.656;37.422;2022-09-03T08:17:47;100185.09;;;12.80
28803;BMP280;15949;55.656;37.422;2022-09-03T08:23:03;100190.53;;;12.77
28803;BMP280;15949;55.656;37.422;2022-09-03T08:28:08;100185.31;;;12.86
28803;BMP280;15949;55.656;37.422;2022-09-03T08:33:14;100174.06;;;13.45
28803;BMP280;15949;55.656;37.422;2022-09-03T08:38:19;100177.25;;;13.91
28803;BMP280;15949;55.656;37.422;2022-09-03T08:43:25;100170.09;;;13.88
28803;BMP280;15949;55.656;37.422;2022-09-03T08:48:32;100169.13;;;14.30
28803;BMP280;15949;55.656;37.422;2022-09-03T08:53:47;100174.44;;;14.64
28803;BMP280;15949;55.656;37.422;2022-09-03T08:58:55;100162.47;;;15.09
28803;BMP280;15949;55.656;37.422;2022-09-03T09:20:49;100161.13;;;13.44
28803;BMP280;15949;55.656;37.422;2022-09-03T09:25:58;100150.84;;;13.42
28803;BMP280;15949;55.656;37.422;2022-09-03T09:31:07;100164.19;;;13.30
28803;BMP280;15949;55.656;37.422;2022-09-03T09:36:17;100169.56;;;13.04
28803;BMP280;15949;55.656;37.422;2022-09-03T09:41:23;100163.97;;;12.98
28803;BMP280;15949;55.656;37.422;2022-09-03T09:46:37;100162.69;;;13.03
28803;BMP280;15949;55.656;37.422;2022-09-03T09:51:44;100161.50;;;12.91
28803;BMP280;15949;55.656;37.422;2022-09-03T09:57:02;100153.56;;;12.88
28803;BMP280;15949;55.656;37.422;2022-09-03T10:02:10;100156.94;;;12.75
28803;BMP280;15949;55.656;37.422;2022-09-03T10:07:36;100150.59;;;13.75
28803;BMP280;15949;55.656;37.422;2022-09-03T10:12:45;100148.94;;;14.60
28803;BMP280;15949;55.656;37.422;2022-09-03T10:23:06;100156.00;;;14.10
28803;BMP280;15949;55.656;37.422;2022-09-03T10:28:12;100153.72;;;13.86
28803;BMP280;15949;55.656;37.422;2022-09-03T10:33:24;100156.56;;;13.92
28803;BMP280;15949;55.656;37.422;2022-09-03T10:38:34;100158.16;;;14.02
28803;BMP280;15949;55.656;37.422;2022-09-03T10:44:08;100157.78;;;13.78
28803;BMP280;15949;55.656;37.422;2022-09-03T11:00:29;100146.38;;;16.23
28803;BMP280;15949;55.656;37.422;2022-09-03T11:10:45;100143.41;;;16.12
28803;BMP280;15949;55.656;37.422;2022-09-03T11:15:58;100140.28;;;15.67
28803;BMP280;15949;55.656;37.422;2022-09-03T11:21:08;100144.88;;;15.67
28803;BMP280;15949;55.656;37.422;2022-09-03T11:26:17;100149.53;;;15.26
28803;BMP280;15949;55.656;37.422;2022-09-03T11:32:00;100151.00;;;14.56
28803;BMP280;15949;55.656;37.422;2022-09-03T11:37:27;100139.03;;;14.13
28803;BMP280;15949;55.656;37.422;2022-09-03T11:42:36;100129.25;;;13.97
28803;BMP280;15949;55.656;37.422;2022-09-03T11:47:43;100125.59;;;14.04
28803;BMP280;15949;55.656;37.422;2022-09-03T11:52:53;100114.81;;;14.60
28803;BMP280;15949;55.656;37.422;2022-09-03T11:58:13;100103.97;;;15.63
28803;BMP280;15949;55.656;37.422;2022-09-03T12:03:46;100112.97;;;16.15
28803;BMP280;15949;55.656;37.422;2022-09-03T12:14:36;100097.94;;;16.93
28803;BMP280;15949;55.656;37.422;2022-09-03T12:19:53;100088.53;;;17.36
28803;BMP280;15949;55.656;37.422;2022-09-03T12:25:11;100085.00;;;16.82
28803;BMP280;15949;55.656;37.422;2022-09-03T12:30:21;100086.75;;;17.33
28803;BMP280;15949;55.656;37.422;2022-09-03T12:35:27;100074.75;;;16.96
28803;BMP280;15949;55.656;37.422;2022-09-03T12:40:33;100078.13;;;16.21
28803;BMP280;15949;55.656;37.422;2022-09-03T12:45:47;100072.66;;;15.87
28803;BMP280;15949;55.656;37.422;2022-09-03T12:51:02;100085.97;;;16.52
28803;BMP280;15949;55.656;37.422;2022-09-03T12:56:08;100069.72;;;16.46
28803;BMP280;15949;55.656;37.422;2022-09-03T13:01:45;100067.38;;;16.72
28803;BMP280;15949;55.656;37.422;2022-09-03T13:07:30;100067.41;;;17.20
28803;BMP280;15949;55.656;37.422;2022-09-03T13:12:43;100058.22;;;17.51
28803;BMP280;15949;55.656;37.422;2022-09-03T13:18:19;100061.72;;;17.18
28803;BMP280;15949;55.656;37.422;2022-09-03T13:34:33;100067.91;;;15.55
28803;BMP280;15949;55.656;37.422;2022-09-03T13:39:47;100055.16;;;15.28
28803;BMP280;15949;55.656;37.422;2022-09-03T13:45:38;100049.03;;;15.27
28803;BMP280;15949;55.656;37.422;2022-09-03T13:50:52;100047.84;;;16.02
28803;BMP280;15949;55.656;37.422;2022-09-03T13:56:06;100032.81;;;15.31
28803;BMP280;15949;55.656;37.422;2022-09-03T14:06:51;100026.03;;;16.18
28803;BMP280;15949;55.656;37.422;2022-09-03T14:28:10;100011.41;;;15.00
28803;BMP280;15949;55.656;37.422;2022-09-03T14:33:52;100014.72;;;15.04
28803;BMP280;15949;55.656;37.422;2022-09-03T14:39:07;100013.38;;;14.68
28803;BMP280;15949;55.656;37.422;2022-09-03T14:44:30;100009.72;;;14.43
28803;BMP280;15949;55.656;37.422;2022-09-03T15:00:53;100027.09;;;14.08
28803;BMP280;15949;55.656;37.422;2022-09-03T15:06:12;100019.09;;;13.73
28803;BMP280;15949;55.656;37.422;2022-09-03T15:11:22;100011.78;;;13.52
28803;BMP280;15949;55.656;37.422;2022-09-03T15:16:50;100009.78;;;13.30
28803;BMP280;15949;55.656;37.422;2022-09-03T15:33:09;100010.81;;;12.31
28803;BMP280;15949;55.656;37.422;2022-09-03T15:44:06;100010.47;;;11.70
28803;BMP280;15949;55.656;37.422;2022-09-03T15:49:17;100002.72;;;11.43
28803;BMP280;15949;55.656;37.422;2022-09-03T16:05:11;100005.69;;;10.60
28803;BMP280;15949;55.656;37.422;2022-09-03T16:10:19;100002.69;;;10.38
28803;BMP280;15949;55.656;37.422;2022-09-03T16:15:29;100004.59;;;10.18
28803;BMP280;15949;55.656;37.422;2022-09-03T16:21:02;100003.03;;;9.97
28803;BMP280;15949;55.656;37.422;2022-09-03T16:26:12;100007.94;;;9.78
28803;BMP280;15949;55.656;37.422;2022-09-03T16:48:13;100018.78;;;9.37
28803;BMP280;15949;55.656;37.422;2022-09-03T16:58:56;100024.72;;;9.48
28803;BMP280;15949;55.656;37.422;2022-09-03T17:04:19;100019.75;;;9.50
28803;BMP280;15949;55.656;37.422;2022-09-03T17:20:45;100031.78;;;9.58
28803;BMP280;15949;55.656;37.422;2022-09-03T17:31:30;100037.56;;;9.77
28803;BMP280;15949;55.656;37.422;2022-09-03T17:36:52;100035.25;;;9.79
28803;BMP280;15949;55.656;37.422;2022-09-03T17:42:15;100027.75;;;9.74
28803;BMP280;15949;55.656;37.422;2022-09-03T17:58:52;100042.94;;;9.97
28803;BMP280;15949;55.656;37.422;2022-09-03T18:10:07;100050.66;;;10.14
28803;BMP280;15949;55.656;37.422;2022-09-03T18:20:25;100039.88;;;10.22
28803;BMP280;15949;55.656;37.422;2022-09-03T18:26:13;100030.06;;;10.19
28803;BMP280;15949;55.656;37.422;2022-09-03T18:31:39;100030.06;;;9.95
28803;BMP280;15949;55.656;37.422;2022-09-03T18:37:04;100025.81;;;9.78
28803;BMP280;15949;55.656;37.422;2022-09-03T18:53:31;100016.25;;;8.99
28803;BMP280;15949;55.656;37.422;2022-09-03T19:10:28;100011.78;;;8.92
28803;BMP280;15949;55.656;37.422;2022-09-03T19:16:12;99999.19;;;8.96
28803;BMP280;15949;55.656;37.422;2022-09-03T19:21:44;99993.09;;;9.00
28803;BMP280;15949;55.656;37.422;2022-09-03T19:33:25;99996.66;;;9.16
28803;BMP280;15949;55.656;37.422;2022-09-03T19:44:53;100000.69;;;9.28
28803;BMP280;15949;55.656;37.422;2022-09-03T19:50:21;100002.50;;;9.35
28803;BMP280;15949;55.656;37.422;2022-09-03T19:55:51;100004.66;;;9.43
28803;BMP280;15949;55.656;37.422;2022-09-03T20:01:16;100012.97;;;9.46
28803;BMP280;15949;55.656;37.422;2022-09-03T20:06:42;100015.50;;;9.53
28803;BMP280;15949;55.656;37.422;2022-09-03T20:12:07;100006.66;;;9.59
28803;BMP280;15949;55.656;37.422;2022-09-03T20:17:38;100010.34;;;9.69
28803;BMP280;15949;55.656;37.422;2022-09-03T20:23:09;100002.53;;;9.82
28803;BMP280;15949;55.656;37.422;2022-09-03T20:45:26;100011.78;;;9.74
28803;BMP280;15949;55.656;37.422;2022-09-03T20:50:47;99995.34;;;9.79
28803;BMP280;15949;55.656;37.422;2022-09-03T21:01:37;99991.88;;;9.58
28803;BMP280;15949;55.656;37.422;2022-09-03T21:12:14;99996.72;;;9.40
28803;BMP280;15949;55.656;37.422;2022-09-03T21:23:40;100002.63;;;9.24
28803;BMP280;15949;55.656;37.422;2022-09-03T21:29:30;100006.50;;;9.19
28803;BMP280;15949;55.656;37.422;2022-09-03T21:34:45;100005.44;;;9.13
28803;BMP280;15949;55.656;37.422;2022-09-03T21:39:54;100016.09;;;9.13
28803;BMP280;15949;55.656;37.422;2022-09-03T21:45:38;100016.09;;;9.13
28803;BMP280;15949;55.656;37.422;2022-09-03T21:50:59;100026.25;;;9.18
28803;BMP280;15949;55.656;37.422;2022-09-03T21:56:14;100033.09;;;9.19
28803;BMP280;15949;55.656;37.422;2022-09-03T22:12:20;100026.34;;;9.11
28803;BMP280;15949;55.656;37.422;2022-09-03T22:22:44;100023.75;;;8.73
28803;BMP280;15949;55.656;37.422;2022-09-03T22:33:28;100026.13;;;8.64
28803;BMP280;15949;55.656;37.422;2022-09-03T22:49:33;100026.06;;;8.34
28803;BMP280;15949;55.656;37.422;2022-09-03T22:55:19;100022.03;;;8.18
28803;BMP280;15949;55.656;37.422;2022-09-03T23:00:25;100018.41;;;8.01
28803;BMP280;15949;55.656;37.422;2022-09-03T23:05:35;100029.91;;;7.84
28803;BMP280;15949;55.656;37.422;2022-09-03T23:16:16;100039.16;;;7.54
28803;BMP280;15949;55.656;37.422;2022-09-03T23:21:35;100045.31;;;7.37
28803;BMP280;15949;55.656;37.422;2022-09-03T23:26:46;100037.81;;;7.21
28803;BMP280;15949;55.656;37.422;2022-09-03T23:31:57;100051.50;;;7.12
